sensor_id;sensor_type;location;lat;lon;timestamp;temperature;humidity
17348;DHT22;8791;50.876;4.342;2023-05-07T00:00:54;17.90;99.90
17348;DHT22;8791;50.876;4.342;2023-05-07T00:03:21;17.90;99.90
17348;DHT22;8791;50.876;4.342;2023-05-07T00:05:48;17.90;99.90
17348;DHT22;8791;50.876;4.342;2023-05-07T00:08:16;18.00;99.90
17348;DHT22;8791;50.876;4.342;2023-05-07T00:10:43;18.00;99.90
17348;DHT22;8791;50.876;4.342;2023-05-07T00:13:12;18.00;99.90
17348;DHT22;8791;50.876;4.342;2023-05-07T00:15:38;17.90;99.90
17348;DHT22;8791;50.876;4.342;2023-05-07T00:18:05;17.90;99.90
17348;DHT22;8791;50.876;4.342;2023-05-07T00:20:32;17.80;99.90
17348;DHT22;8791;50.876;4.342;2023-05-07T00:22:59;17.70;99.90
17348;DHT22;8791;50.876;4.342;2023-05-07T00:25:27;17.80;99.90
17348;DHT22;8791;50.876;4.342;2023-05-07T00:27:54;17.90;99.90
17348;DHT22;8791;50.876;4.342;2023-05-07T00:30:21;17.90;99.90
17348;DHT22;8791;50.876;4.342;2023-05-07T00:32:48;17.90;99.90
17348;DHT22;8791;50.876;4.342;2023-05-07T00:35:16;17.90;99.90
17348;DHT22;8791;50.876;4.342;2023-05-07T00:37:43;17.90;99.90
17348;DHT22;8791;50.876;4.342;2023-05-07T00:40:10;18.00;99.90
17348;DHT22;8791;50.876;4.342;2023-05-07T00:42:38;18.00;99.90
17348;DHT22;8791;50.876;4.342;2023-05-07T00:45:06;17.90;99.90
17348;DHT22;8791;50.876;4.342;2023-05-07T00:47:34;18.00;99.90
17348;DHT22;8791;50.876;4.342;2023-05-07T00:50:01;18.00;99.90
17348;DHT22;8791;50.876;4.342;2023-05-07T00:52:28;18.10;99.90
17348;DHT22;8791;50.876;4.342;2023-05-07T00:54:55;18.10;99.90
17348;DHT22;8791;50.876;4.342;2023-05-07T00:57:24;18.10;99.90
17348;DHT22;8791;50.876;4.342;2023-05-07T00:59:52;18.00;99.90
17348;DHT22;8791;50.876;4.342;2023-05-07T01:02:19;17.90;99.90
17348;DHT22;8791;50.876;4.342;2023-05-07T01:04:46;18.00;99.90
17348;DHT22;8791;50.876;4.342;2023-05-07T01:07:13;17.90;99.90
17348;DHT22;8791;50.876;4.342;2023-05-07T01:09:40;18.00;99.90
17348;DHT22;8791;50.876;4.342;2023-05-07T01:12:08;18.10;99.90
17348;DHT22;8791;50.876;4.342;2023-05-07T01:14:35;18.00;99.90
17348;DHT22;8791;50.876;4.342;2023-05-07T01:17:03;17.90;99.90
17348;DHT22;8791;50.876;4.342;2023-05-07T01:19:31;18.00;99.90
17348;DHT22;8791;50.876;4.342;2023-05-07T01:22:02;17.90;99.90
17348;DHT22;8791;50.876;4.342;2023-05-07T01:24:31;18.00;99.90
17348;DHT22;8791;50.876;4.342;2023-05-07T01:26:59;18.20;99.90
17348;DHT22;8791;50.876;4.342;2023-05-07T01:29:27;18.30;99.90
17348;DHT22;8791;50.876;4.342;2023-05-07T01:31:55;18.20;99.90
17348;DHT22;8791;50.876;4.342;2023-05-07T01:34:25;18.20;99.90
17348;DHT22;8791;50.876;4.342;2023-05-07T01:36:53;18.00;99.90
17348;DHT22;8791;50.876;4.342;2023-05-07T01:39:24;17.90;99.90
17348;DHT22;8791;50.876;4.342;2023-05-07T01:41:53;17.90;99.90
17348;DHT22;8791;50.876;4.342;2023-05-07T01:44:21;17.90;99.90
17348;DHT22;8791;50.876;4.342;2023-05-07T01:46:49;17.80;99.90
17348;DHT22;8791;50.876;4.342;2023-05-07T01:49:16;17.60;99.90
17348;DHT22;8791;50.876;4.342;2023-05-07T01:51:43;17.60;99.90
17348;DHT22;8791;50.876;4.342;2023-05-07T01:54:10;17.40;99.90
17348;DHT22;8791;50.876;4.342;2023-05-07T01:56:37;17.40;99.90
17348;DHT22;8791;50.876;4.342;2023-05-07T01:59:06;17.40;99.90
17348;DHT22;8791;50.876;4.342;2023-05-07T02:01:32;17.60;99.90
17348;DHT22;8791;50.876;4.342;2023-05-07T02:04:00;17.60;99.90
17348;DHT22;8791;50.876;4.342;2023-05-07T02:06:26;17.80;99.90
17348;DHT22;8791;50.876;4.342;2023-05-07T02:08:53;17.90;99.90
17348;DHT22;8791;50.876;4.342;2023-05-07T02:11:20;17.90;99.90
17348;DHT22;8791;50.876;4.342;2023-05-07T02:13:47;17.90;99.90
17348;DHT22;8791;50.876;4.342;2023-05-07T02:16:15;18.00;99.90
17348;DHT22;8791;50.876;4.342;2023-05-07T02:18:42;18.00;99.90
17348;DHT22;8791;50.876;4.342;2023-05-07T02:21:09;18.00;99.90
17348;DHT22;8791;50.876;4.342;2023-05-07T02:23:36;18.00;99.90
17348;DHT22;8791;50.876;4.342;2023-05-07T02:26:04;17.60;99.90
17348;DHT22;8791;50.876;4.342;2023-05-07T02:28:31;17.50;99.90
17348;DHT22;8791;50.876;4.342;2023-05-07T02:30:58;17.50;99.90
17348;DHT22;8791;50.876;4.342;2023-05-07T02:33:27;17.40;99.90
17348;DHT22;8791;50.876;4.342;2023-05-07T02:35:54;17.30;99.90
17348;DHT22;8791;50.876;4.342;2023-05-07T02:38:22;17.50;99.90
17348;DHT22;8791;50.876;4.342;2023-05-07T02:40:49;17.60;99.90
17348;DHT22;8791;50.876;4.342;2023-05-07T02:43:16;17.60;99.90
17348;DHT22;8791;50.876;4.342;2023-05-07T02:45:43;17.50;99.90
17348;DHT22;8791;50.876;4.342;2023-05-07T02:48:09;17.50;99.90
17348;DHT22;8791;50.876;4.342;2023-05-07T02:50:38;17.30;99.90
17348;DHT22;8791;50.876;4.342;2023-05-07T02:53:05;17.20;99.90
17348;DHT22;8791;50.876;4.342;2023-05-07T02:55:32;17.10;99.90
17348;DHT22;8791;50.876;4.342;2023-05-07T02:57:59;17.10;99.90
17348;DHT22;8791;50.876;4.342;2023-05-07T03:00:25;17.00;99.90
17348;DHT22;8791;50.876;4.342;2023-05-07T03:02:52;17.10;99.90
17348;DHT22;8791;50.876;4.342;2023-05-07T03:05:19;17.20;99.90
17348;DHT22;8791;50.876;4.342;2023-05-07T03:07:48;17.00;99.90
17348;DHT22;8791;50.876;4.342;2023-05-07T03:10:15;17.10;99.90
17348;DHT22;8791;50.876;4.342;2023-05-07T03:12:42;17.20;99.90
17348;DHT22;8791;50.876;4.342;2023-05-07T03:15:09;17.10;99.90
17348;DHT22;8791;50.876;4.342;2023-05-07T03:17:37;17.10;99.90
17348;DHT22;8791;50.876;4.342;2023-05-07T03:20:05;17.10;99.90
17348;DHT22;8791;50.876;4.342;2023-05-07T03:22:32;17.20;99.90
17348;DHT22;8791;50.876;4.342;2023-05-07T03:25:00;17.20;99.90
17348;DHT22;8791;50.876;4.342;2023-05-07T03:27:27;17.30;99.90
17348;DHT22;8791;50.876;4.342;2023-05-07T03:29:54;17.30;99.90
17348;DHT22;8791;50.876;4.342;2023-05-07T03:32:21;17.20;99.90
17348;DHT22;8791;50.876;4.342;2023-05-07T03:34:48;17.20;99.90
17348;DHT22;8791;50.876;4.342;2023-05-07T03:37:15;17.30;99.90
17348;DHT22;8791;50.876;4.342;2023-05-07T03:39:42;17.30;99.90
17348;DHT22;8791;50.876;4.342;2023-05-07T03:42:10;17.30;99.90
17348;DHT22;8791;50.876;4.342;2023-05-07T03:44:37;17.30;99.90
17348;DHT22;8791;50.876;4.342;2023-05-07T03:47:04;17.10;99.90
17348;DHT22;8791;50.876;4.342;2023-05-07T03:49:33;17.00;99.90
17348;DHT22;8791;50.876;4.342;2023-05-07T03:52:03;17.10;99.90
17348;DHT22;8791;50.876;4.342;2023-05-07T03:54:31;17.30;99.90
17348;DHT22;8791;50.876;4.342;2023-05-07T03:56:58;17.50;99.90
17348;DHT22;8791;50.876;4.342;2023-05-07T03:59:26;17.60;99.90
17348;DHT22;8791;50.876;4.342;2023-05-07T04:01:53;17.60;99.90
17348;DHT22;8791;50.876;4.342;2023-05-07T04:04:21;17.60;99.90
17348;DHT22;8791;50.876;4.342;2023-05-07T04:06:48;17.40;99.90
17348;DHT22;8791;50.876;4.342;2023-05-07T04:09:15;17.30;99.90
17348;DHT22;8791;50.876;4.342;2023-05-07T04:11:42;17.20;99.90
17348;DHT22;8791;50.876;4.342;2023-05-07T04:14:09;17.10;99.90
17348;DHT22;8791;50.876;4.342;2023-05-07T04:16:37;17.20;99.90
17348;DHT22;8791;50.876;4.342;2023-05-07T04:19:05;17.30;99.90
17348;DHT22;8791;50.876;4.342;2023-05-07T04:21:32;17.30;99.90
17348;DHT22;8791;50.876;4.342;2023-05-07T04:23:59;17.60;99.90
17348;DHT22;8791;50.876;4.342;2023-05-07T04:26:29;17.70;99.90
17348;DHT22;8791;50.876;4.342;2023-05-07T04:28:56;17.60;99.90
17348;DHT22;8791;50.876;4.342;2023-05-07T04:31:27;17.50;99.90
17348;DHT22;8791;50.876;4.342;2023-05-07T04:33:56;17.30;99.90
17348;DHT22;8791;50.876;4.342;2023-05-07T04:36:23;17.20;99.90
17348;DHT22;8791;50.876;4.342;2023-05-07T04:38:53;17.20;99.90
17348;DHT22;8791;50.876;4.342;2023-05-07T04:41:20;17.10;99.90
17348;DHT22;8791;50.876;4.342;2023-05-07T04:43:47;17.20;99.90
17348;DHT22;8791;50.876;4.342;2023-05-07T04:46:14;17.20;99.90
17348;DHT22;8791;50.876;4.342;2023-05-07T04:48:41;17.30;99.90
17348;DHT22;8791;50.876;4.342;2023-05-07T04:51:12;17.30;99.90
17348;DHT22;8791;50.876;4.342;2023-05-07T04:53:39;17.30;99.90
17348;DHT22;8791;50.876;4.342;2023-05-07T04:56:06;17.50;99.90
17348;DHT22;8791;50.876;4.342;2023-05-07T04:58:33;17.50;99.90
17348;DHT22;8791;50.876;4.342;2023-05-07T05:01:00;17.40;99.90
17348;DHT22;8791;50.876;4.342;2023-05-07T05:03:27;17.40;99.90
17348;DHT22;8791;50.876;4.342;2023-05-07T05:05:55;17.40;99.90
17348;DHT22;8791;50.876;4.342;2023-05-07T05:08:26;17.50;99.90
17348;DHT22;8791;50.876;4.342;2023-05-07T05:10:53;17.50;99.90
17348;DHT22;8791;50.876;4.342;2023-05-07T05:13:20;17.50;99.90
17348;DHT22;8791;50.876;4.342;2023-05-07T05:15:46;17.60;99.90
17348;DHT22;8791;50.876;4.342;2023-05-07T05:18:13;17.50;99.90
17348;DHT22;8791;50.876;4.342;2023-05-07T05:20:40;17.50;99.90
17348;DHT22;8791;50.876;4.342;2023-05-07T05:23:08;17.60;99.90
17348;DHT22;8791;50.876;4.342;2023-05-07T05:25:36;17.60;99.90
17348;DHT22;8791;50.876;4.342;2023-05-07T05:28:04;17.70;99.90
17348;DHT22;8791;50.876;4.342;2023-05-07T05:30:31;17.70;99.90
17348;DHT22;8791;50.876;4.342;2023-05-07T05:32:58;17.80;99.90
17348;DHT22;8791;50.876;4.342;2023-05-07T05:35:25;17.90;99.90
17348;DHT22;8791;50.876;4.342;2023-05-07T05:37:52;18.00;99.90
17348;DHT22;8791;50.876;4.342;2023-05-07T05:40:19;18.00;99.90
17348;DHT22;8791;50.876;4.342;2023-05-07T05:42:47;18.00;99.90
17348;DHT22;8791;50.876;4.342;2023-05-07T05:45:14;18.00;99.90
17348;DHT22;8791;50.876;4.342;2023-05-07T05:47:41;18.00;99.90
17348;DHT22;8791;50.876;4.342;2023-05-07T05:50:08;17.90;99.90
17348;DHT22;8791;50.876;4.342;2023-05-07T05:52:35;17.90;99.90
17348;DHT22;8791;50.876;4.342;2023-05-07T05:55:02;17.80;99.90
17348;DHT22;8791;50.876;4.342;2023-05-07T05:57:30;17.80;99.90
17348;DHT22;8791;50.876;4.342;2023-05-07T05:59:58;18.10;99.90
17348;DHT22;8791;50.876;4.342;2023-05-07T06:02:25;18.20;99.90
17348;DHT22;8791;50.876;4.342;2023-05-07T06:04:52;18.30;99.90
17348;DHT22;8791;50.876;4.342;2023-05-07T06:07:19;18.20;99.90
17348;DHT22;8791;50.876;4.342;2023-05-07T06:09:46;18.30;99.90
17348;DHT22;8791;50.876;4.342;2023-05-07T06:12:13;18.20;99.90
17348;DHT22;8791;50.876;4.342;2023-05-07T06:14:42;18.00;99.90
17348;DHT22;8791;50.876;4.342;2023-05-07T06:17:10;18.10;99.90
17348;DHT22;8791;50.876;4.342;2023-05-07T06:19:37;17.90;99.90
17348;DHT22;8791;50.876;4.342;2023-05-07T06:22:04;17.80;99.90
17348;DHT22;8791;50.876;4.342;2023-05-07T06:24:31;17.90;99.90
17348;DHT22;8791;50.876;4.342;2023-05-07T06:26:58;17.80;99.90
17348;DHT22;8791;50.876;4.342;2023-05-07T06:29:25;17.90;99.90
17348;DHT22;8791;50.876;4.342;2023-05-07T06:31:52;18.00;99.90
17348;DHT22;8791;50.876;4.342;2023-05-07T06:34:21;18.00;99.90
17348;DHT22;8791;50.876;4.342;2023-05-07T06:36:48;17.80;99.90
17348;DHT22;8791;50.876;4.342;2023-05-07T06:39:15;17.60;99.90
17348;DHT22;8791;50.876;4.342;2023-05-07T06:41:42;17.40;99.90
17348;DHT22;8791;50.876;4.342;2023-05-07T06:44:09;17.70;99.90
17348;DHT22;8791;50.876;4.342;2023-05-07T06:46:36;17.60;99.90
17348;DHT22;8791;50.876;4.342;2023-05-07T06:49:03;17.70;99.90
17348;DHT22;8791;50.876;4.342;2023-05-07T06:51:31;17.80;99.90
17348;DHT22;8791;50.876;4.342;2023-05-07T06:53:58;17.70;99.90
17348;DHT22;8791;50.876;4.342;2023-05-07T06:56:25;17.90;99.90
17348;DHT22;8791;50.876;4.342;2023-05-07T06:58:52;17.90;99.90
17348;DHT22;8791;50.876;4.342;2023-05-07T07:01:19;18.00;99.90
17348;DHT22;8791;50.876;4.342;2023-05-07T07:03:46;18.10;99.90
17348;DHT22;8791;50.876;4.342;2023-05-07T07:06:13;17.90;99.90
17348;DHT22;8791;50.876;4.342;2023-05-07T07:08:41;18.10;99.90
17348;DHT22;8791;50.876;4.342;2023-05-07T07:11:09;18.00;99.90
17348;DHT22;8791;50.876;4.342;2023-05-07T07:13:36;18.10;99.90
17348;DHT22;8791;50.876;4.342;2023-05-07T07:16:03;18.00;99.90
17348;DHT22;8791;50.876;4.342;2023-05-07T07:18:30;17.90;99.90
17348;DHT22;8791;50.876;4.342;2023-05-07T07:20:57;18.00;99.90
17348;DHT22;8791;50.876;4.342;2023-05-07T07:23:24;18.20;99.90
17348;DHT22;8791;50.876;4.342;2023-05-07T07:25:53;18.00;99.90
17348;DHT22;8791;50.876;4.342;2023-05-07T07:28:22;18.10;99.90
17348;DHT22;8791;50.876;4.342;2023-05-07T07:30:49;18.10;99.90
17348;DHT22;8791;50.876;4.342;2023-05-07T07:33:16;18.10;99.90
17348;DHT22;8791;50.876;4.342;2023-05-07T07:35:43;17.90;99.90
17348;DHT22;8791;50.876;4.342;2023-05-07T07:38:10;17.80;99.90
17348;DHT22;8791;50.876;4.342;2023-05-07T07:40:37;17.50;99.90
17348;DHT22;8791;50.876;4.342;2023-05-07T07:43:05;17.70;99.90
17348;DHT22;8791;50.876;4.342;2023-05-07T07:45:32;17.60;99.90
17348;DHT22;8791;50.876;4.342;2023-05-07T07:47:59;17.70;99.90
17348;DHT22;8791;50.876;4.342;2023-05-07T07:50:26;17.70;99.90
17348;DHT22;8791;50.876;4.342;2023-05-07T07:52:53;17.50;99.90
17348;DHT22;8791;50.876;4.342;2023-05-07T07:55:22;17.60;99.90
17348;DHT22;8791;50.876;4.342;2023-05-07T07:57:49;17.80;99.90
17348;DHT22;8791;50.876;4.342;2023-05-07T08:00:18;17.80;99.90
17348;DHT22;8791;50.876;4.342;2023-05-07T08:02:45;17.90;99.90
17348;DHT22;8791;50.876;4.342;2023-05-07T08:05:12;17.80;99.90
17348;DHT22;8791;50.876;4.342;2023-05-07T08:07:40;17.90;99.90
17348;DHT22;8791;50.876;4.342;2023-05-07T08:10:08;17.90;99.90
17348;DHT22;8791;50.876;4.342;2023-05-07T08:12:35;17.80;99.90
17348;DHT22;8791;50.876;4.342;2023-05-07T08:15:02;17.60;99.90
17348;DHT22;8791;50.876;4.342;2023-05-07T08:17:30;17.80;99.90
17348;DHT22;8791;50.876;4.342;2023-05-07T08:19:57;17.80;99.90
17348;DHT22;8791;50.876;4.342;2023-05-07T08:22:24;18.00;99.90
17348;DHT22;8791;50.876;4.342;2023-05-07T08:24:51;17.80;99.90
17348;DHT22;8791;50.876;4.342;2023-05-07T08:27:19;17.80;99.90
17348;DHT22;8791;50.876;4.342;2023-05-07T08:29:46;17.90;99.90
17348;DHT22;8791;50.876;4.342;2023-05-07T08:32:13;17.70;99.90
17348;DHT22;8791;50.876;4.342;2023-05-07T08:34:41;17.90;99.90
17348;DHT22;8791;50.876;4.342;2023-05-07T08:37:08;17.80;99.90
17348;DHT22;8791;50.876;4.342;2023-05-07T08:39:35;17.70;99.90
17348;DHT22;8791;50.876;4.342;2023-05-07T08:42:04;17.80;99.90
17348;DHT22;8791;50.876;4.342;2023-05-07T08:44:33;17.70;99.90
17348;DHT22;8791;50.876;4.342;2023-05-07T08:47:01;17.90;99.90
17348;DHT22;8791;50.876;4.342;2023-05-07T08:49:28;17.70;99.90
17348;DHT22;8791;50.876;4.342;2023-05-07T08:51:57;17.70;99.90
17348;DHT22;8791;50.876;4.342;2023-05-07T08:54:25;17.50;99.90
17348;DHT22;8791;50.876;4.342;2023-05-07T08:56:52;17.60;99.90
17348;DHT22;8791;50.876;4.342;2023-05-07T08:59:19;17.60;99.90
17348;DHT22;8791;50.876;4.342;2023-05-07T09:01:47;17.70;99.90
17348;DHT22;8791;50.876;4.342;2023-05-07T09:04:14;17.70;99.90
17348;DHT22;8791;50.876;4.342;2023-05-07T09:06:40;17.70;99.90
17348;DHT22;8791;50.876;4.342;2023-05-07T09:09:09;17.60;99.90
17348;DHT22;8791;50.876;4.342;2023-05-07T09:11:41;17.50;99.90
17348;DHT22;8791;50.876;4.342;2023-05-07T09:14:08;17.20;99.90
17348;DHT22;8791;50.876;4.342;2023-05-07T09:16:35;17.20;99.90
17348;DHT22;8791;50.876;4.342;2023-05-07T09:19:02;17.30;99.90
17348;DHT22;8791;50.876;4.342;2023-05-07T09:21:29;17.20;99.90
17348;DHT22;8791;50.876;4.342;2023-05-07T09:23:57;17.30;99.90
17348;DHT22;8791;50.876;4.342;2023-05-07T09:26:25;17.40;99.90
17348;DHT22;8791;50.876;4.342;2023-05-07T09:28:53;17.40;99.90
17348;DHT22;8791;50.876;4.342;2023-05-07T09:31:20;17.40;99.90
17348;DHT22;8791;50.876;4.342;2023-05-07T09:33:49;17.40;99.90
17348;DHT22;8791;50.876;4.342;2023-05-07T09:36:16;17.50;99.90
17348;DHT22;8791;50.876;4.342;2023-05-07T09:38:43;17.60;99.90
17348;DHT22;8791;50.876;4.342;2023-05-07T09:41:11;17.50;99.90
17348;DHT22;8791;50.876;4.342;2023-05-07T09:43:40;17.50;99.90
17348;DHT22;8791;50.876;4.342;2023-05-07T09:46:10;17.50;99.90
17348;DHT22;8791;50.876;4.342;2023-05-07T09:48:39;17.40;99.90
17348;DHT22;8791;50.876;4.342;2023-05-07T09:51:16;17.50;99.90
17348;DHT22;8791;50.876;4.342;2023-05-07T09:53:45;17.70;99.90
17348;DHT22;8791;50.876;4.342;2023-05-07T09:56:13;17.50;99.90
17348;DHT22;8791;50.876;4.342;2023-05-07T09:58:43;17.40;99.90
17348;DHT22;8791;50.876;4.342;2023-05-07T10:01:12;17.60;99.90
17348;DHT22;8791;50.876;4.342;2023-05-07T10:03:41;17.70;99.90
17348;DHT22;8791;50.876;4.342;2023-05-07T10:06:09;17.70;99.90
17348;DHT22;8791;50.876;4.342;2023-05-07T10:08:36;17.80;99.90
17348;DHT22;8791;50.876;4.342;2023-05-07T10:11:04;17.90;99.90
17348;DHT22;8791;50.876;4.342;2023-05-07T10:13:32;18.00;99.90
17348;DHT22;8791;50.876;4.342;2023-05-07T10:16:03;18.10;99.90
17348;DHT22;8791;50.876;4.342;2023-05-07T10:18:30;18.10;99.90
17348;DHT22;8791;50.876;4.342;2023-05-07T10:21:04;17.90;99.90
17348;DHT22;8791;50.876;4.342;2023-05-07T10:23:33;18.00;99.90
17348;DHT22;8791;50.876;4.342;2023-05-07T10:26:02;18.10;99.90
17348;DHT22;8791;50.876;4.342;2023-05-07T10:28:33;17.90;99.90
17348;DHT22;8791;50.876;4.342;2023-05-07T10:31:19;18.00;99.90
17348;DHT22;8791;50.876;4.342;2023-05-07T10:33:51;17.90;99.90
17348;DHT22;8791;50.876;4.342;2023-05-07T10:36:19;18.10;99.90
17348;DHT22;8791;50.876;4.342;2023-05-07T10:38:47;18.20;99.90
17348;DHT22;8791;50.876;4.342;2023-05-07T10:41:14;18.20;99.90
17348;DHT22;8791;50.876;4.342;2023-05-07T10:43:43;18.10;99.90
17348;DHT22;8791;50.876;4.342;2023-05-07T10:46:16;18.30;99.90
17348;DHT22;8791;50.876;4.342;2023-05-07T10:49:08;18.40;99.90
17348;DHT22;8791;50.876;4.342;2023-05-07T10:51:37;18.80;99.90
17348;DHT22;8791;50.876;4.342;2023-05-07T10:54:21;18.70;99.90
17348;DHT22;8791;50.876;4.342;2023-05-07T10:56:48;18.80;99.90
17348;DHT22;8791;50.876;4.342;2023-05-07T10:59:37;18.90;99.90
17348;DHT22;8791;50.876;4.342;2023-05-07T11:02:09;18.90;99.90
17348;DHT22;8791;50.876;4.342;2023-05-07T11:04:37;18.80;99.90
17348;DHT22;8791;50.876;4.342;2023-05-07T11:07:29;18.40;99.90
17348;DHT22;8791;50.876;4.342;2023-05-07T11:10:07;18.40;99.90
17348;DHT22;8791;50.876;4.342;2023-05-07T11:12:53;18.50;99.90
17348;DHT22;8791;50.876;4.342;2023-05-07T11:15:40;18.50;99.90
17348;DHT22;8791;50.876;4.342;2023-05-07T11:18:11;18.50;99.90
17348;DHT22;8791;50.876;4.342;2023-05-07T11:20:51;18.40;99.90
17348;DHT22;8791;50.876;4.342;2023-05-07T11:23:56;18.50;99.90
17348;DHT22;8791;50.876;4.342;2023-05-07T11:26:28;18.50;99.90
17348;DHT22;8791;50.876;4.342;2023-05-07T11:28:55;18.50;99.90
17348;DHT22;8791;50.876;4.342;2023-05-07T11:31:26;18.50;99.90
17348;DHT22;8791;50.876;4.342;2023-05-07T11:33:55;18.70;99.90
17348;DHT22;8791;50.876;4.342;2023-05-07T11:36:23;18.70;99.90
17348;DHT22;8791;50.876;4.342;2023-05-07T11:38:51;18.60;99.90
17348;DHT22;8791;50.876;4.342;2023-05-07T11:41:18;18.70;99.90
17348;DHT22;8791;50.876;4.342;2023-05-07T11:43:59;18.80;99.90
17348;DHT22;8791;50.876;4.342;2023-05-07T11:46:27;18.90;99.90
17348;DHT22;8791;50.876;4.342;2023-05-07T11:48:56;19.20;99.90
17348;DHT22;8791;50.876;4.342;2023-05-07T11:51:24;19.10;99.90
17348;DHT22;8791;50.876;4.342;2023-05-07T11:53:53;19.30;99.90
17348;DHT22;8791;50.876;4.342;2023-05-07T11:56:20;19.40;99.90
17348;DHT22;8791;50.876;4.342;2023-05-07T11:58:47;19.50;99.90
17348;DHT22;8791;50.876;4.342;2023-05-07T12:01:15;19.50;99.90
17348;DHT22;8791;50.876;4.342;2023-05-07T12:03:44;19.50;99.90
17348;DHT22;8791;50.876;4.342;2023-05-07T12:06:14;19.40;99.90
17348;DHT22;8791;50.876;4.342;2023-05-07T12:08:42;19.20;99.90
17348;DHT22;8791;50.876;4.342;2023-05-07T12:11:16;19.30;99.90
17348;DHT22;8791;50.876;4.342;2023-05-07T12:13:48;19.50;99.90
17348;DHT22;8791;50.876;4.342;2023-05-07T12:16:15;19.50;99.90
17348;DHT22;8791;50.876;4.342;2023-05-07T12:18:42;19.60;99.90
17348;DHT22;8791;50.876;4.342;2023-05-07T12:21:09;19.80;99.90
17348;DHT22;8791;50.876;4.342;2023-05-07T12:23:38;20.10;99.90
17348;DHT22;8791;50.876;4.342;2023-05-07T12:26:05;20.10;99.90
17348;DHT22;8791;50.876;4.342;2023-05-07T12:28:39;19.90;99.90
17348;DHT22;8791;50.876;4.342;2023-05-07T12:31:09;19.70;99.90
17348;DHT22;8791;50.876;4.342;2023-05-07T12:33:36;19.90;99.90
17348;DHT22;8791;50.876;4.342;2023-05-07T12:36:05;19.80;99.90
17348;DHT22;8791;50.876;4.342;2023-05-07T12:38:38;20.10;99.90
17348;DHT22;8791;50.876;4.342;2023-05-07T12:41:07;20.20;99.90
17348;DHT22;8791;50.876;4.342;2023-05-07T12:43:34;20.20;99.90
17348;DHT22;8791;50.876;4.342;2023-05-07T12:46:03;20.10;99.90
17348;DHT22;8791;50.876;4.342;2023-05-07T12:48:30;20.20;99.90
17348;DHT22;8791;50.876;4.342;2023-05-07T12:50:59;20.10;99.90
17348;DHT22;8791;50.876;4.342;2023-05-07T12:53:28;19.90;99.90
17348;DHT22;8791;50.876;4.342;2023-05-07T12:55:59;20.00;99.90
17348;DHT22;8791;50.876;4.342;2023-05-07T12:58:32;20.00;99.90
17348;DHT22;8791;50.876;4.342;2023-05-07T13:01:03;20.20;99.90
17348;DHT22;8791;50.876;4.342;2023-05-07T13:03:32;20.10;99.90
17348;DHT22;8791;50.876;4.342;2023-05-07T13:06:00;20.10;99.90
17348;DHT22;8791;50.876;4.342;2023-05-07T13:08:29;20.00;99.90
17348;DHT22;8791;50.876;4.342;2023-05-07T13:11:00;19.70;99.90
17348;DHT22;8791;50.876;4.342;2023-05-07T13:13:29;19.60;99.90
17348;DHT22;8791;50.876;4.342;2023-05-07T13:15:56;19.70;99.90
17348;DHT22;8791;50.876;4.342;2023-05-07T13:18:24;19.90;99.90
17348;DHT22;8791;50.876;4.342;2023-05-07T13:20:51;19.80;99.90
17348;DHT22;8791;50.876;4.342;2023-05-07T13:23:18;19.90;99.90
17348;DHT22;8791;50.876;4.342;2023-05-07T13:25:45;20.10;99.90
17348;DHT22;8791;50.876;4.342;2023-05-07T13:28:13;20.10;99.90
17348;DHT22;8791;50.876;4.342;2023-05-07T13:30:40;20.00;99.90
17348;DHT22;8791;50.876;4.342;2023-05-07T13:33:07;20.20;99.90
17348;DHT22;8791;50.876;4.342;2023-05-07T13:35:35;20.20;99.90
17348;DHT22;8791;50.876;4.342;2023-05-07T13:38:02;20.20;99.90
17348;DHT22;8791;50.876;4.342;2023-05-07T13:40:29;20.30;99.90
17348;DHT22;8791;50.876;4.342;2023-05-07T13:42:57;19.60;99.90
17348;DHT22;8791;50.876;4.342;2023-05-07T13:45:26;19.70;99.90
17348;DHT22;8791;50.876;4.342;2023-05-07T13:47:55;20.10;99.90
17348;DHT22;8791;50.876;4.342;2023-05-07T13:50:22;20.20;99.90
17348;DHT22;8791;50.876;4.342;2023-05-07T13:52:49;20.30;99.90
17348;DHT22;8791;50.876;4.342;2023-05-07T13:55:17;20.10;99.90
17348;DHT22;8791;50.876;4.342;2023-05-07T13:57:44;19.90;99.90
17348;DHT22;8791;50.876;4.342;2023-05-07T14:00:12;20.00;99.90
17348;DHT22;8791;50.876;4.342;2023-05-07T14:02:40;20.10;99.90
17348;DHT22;8791;50.876;4.342;2023-05-07T14:05:08;20.40;99.90
17348;DHT22;8791;50.876;4.342;2023-05-07T14:07:35;20.50;99.90
17348;DHT22;8791;50.876;4.342;2023-05-07T14:10:03;20.60;99.90
17348;DHT22;8791;50.876;4.342;2023-05-07T14:12:31;20.20;99.90
17348;DHT22;8791;50.876;4.342;2023-05-07T14:14:58;20.30;99.90
17348;DHT22;8791;50.876;4.342;2023-05-07T14:17:25;20.30;99.90
17348;DHT22;8791;50.876;4.342;2023-05-07T14:19:54;20.50;99.90
17348;DHT22;8791;50.876;4.342;2023-05-07T14:22:21;20.10;99.90
17348;DHT22;8791;50.876;4.342;2023-05-07T14:24:49;19.90;99.90
17348;DHT22;8791;50.876;4.342;2023-05-07T14:27:16;20.30;99.90
17348;DHT22;8791;50.876;4.342;2023-05-07T14:29:43;20.50;99.90
17348;DHT22;8791;50.876;4.342;2023-05-07T14:32:11;20.40;99.90
17348;DHT22;8791;50.876;4.342;2023-05-07T14:34:38;20.60;99.90
17348;DHT22;8791;50.876;4.342;2023-05-07T14:37:06;20.70;99.90
17348;DHT22;8791;50.876;4.342;2023-05-07T14:39:33;20.40;99.90
17348;DHT22;8791;50.876;4.342;2023-05-07T14:42:00;20.30;99.90
17348;DHT22;8791;50.876;4.342;2023-05-07T14:44:27;20.50;99.90
17348;DHT22;8791;50.876;4.342;2023-05-07T14:46:54;20.40;99.90
17348;DHT22;8791;50.876;4.342;2023-05-07T14:49:20;20.40;99.90
17348;DHT22;8791;50.876;4.342;2023-05-07T14:51:47;20.00;99.90
17348;DHT22;8791;50.876;4.342;2023-05-07T14:54:16;20.20;99.90
17348;DHT22;8791;50.876;4.342;2023-05-07T14:56:43;20.00;99.90
17348;DHT22;8791;50.876;4.342;2023-05-07T14:59:10;20.30;99.90
17348;DHT22;8791;50.876;4.342;2023-05-07T15:01:37;20.40;99.90
17348;DHT22;8791;50.876;4.342;2023-05-07T15:04:05;20.60;99.90
17348;DHT22;8791;50.876;4.342;2023-05-07T15:06:32;20.70;99.90
17348;DHT22;8791;50.876;4.342;2023-05-07T15:08:59;20.70;99.90
17348;DHT22;8791;50.876;4.342;2023-05-07T15:11:28;20.60;99.90
17348;DHT22;8791;50.876;4.342;2023-05-07T15:13:55;20.40;99.90
17348;DHT22;8791;50.876;4.342;2023-05-07T15:16:22;20.40;99.90
17348;DHT22;8791;50.876;4.342;2023-05-07T15:18:49;20.40;99.90
17348;DHT22;8791;50.876;4.342;2023-05-07T15:21:16;20.10;99.90
17348;DHT22;8791;50.876;4.342;2023-05-07T15:23:43;19.90;99.90
17348;DHT22;8791;50.876;4.342;2023-05-07T15:26:10;20.10;99.90
17348;DHT22;8791;50.876;4.342;2023-05-07T15:28:39;19.90;99.90
17348;DHT22;8791;50.876;4.342;2023-05-07T15:31:05;20.00;99.90
17348;DHT22;8791;50.876;4.342;2023-05-07T15:33:32;20.10;99.90
17348;DHT22;8791;50.876;4.342;2023-05-07T15:35:59;20.20;99.90
17348;DHT22;8791;50.876;4.342;2023-05-07T15:38:27;19.90;99.90
17348;DHT22;8791;50.876;4.342;2023-05-07T15:40:54;19.70;99.90
17348;DHT22;8791;50.876;4.342;2023-05-07T15:43:21;19.70;99.90
17348;DHT22;8791;50.876;4.342;2023-05-07T15:45:49;19.80;99.90
17348;DHT22;8791;50.876;4.342;2023-05-07T15:48:16;20.10;99.90
17348;DHT22;8791;50.876;4.342;2023-05-07T15:50:43;20.10;99.90